sensor_id;sensor_type;location;lat;lon;timestamp;temperature;humidity
3086;DHT22;52812;48.960;9.108;2023-03-24T00:00:06;12.60;99.90
3086;DHT22;52812;48.960;9.108;2023-03-24T00:02:36;12.60;99.90
3086;DHT22;52812;48.960;9.108;2023-03-24T00:05:03;12.60;99.90
3086;DHT22;52812;48.960;9.108;2023-03-24T00:07:30;12.60;99.90
3086;DHT22;52812;48.960;9.108;2023-03-24T00:09:58;12.60;99.90
3086;DHT22;52812;48.960;9.108;2023-03-24T00:12:24;12.50;99.90
3086;DHT22;52812;48.960;9.108;2023-03-24T00:14:50;12.60;99.90
3086;DHT22;52812;48.960;9.108;2023-03-24T00:17:19;12.50;99.90
3086;DHT22;52812;48.960;9.108;2023-03-24T00:19:52;12.50;99.90
3086;DHT22;52812;48.960;9.108;2023-03-24T00:22:20;12.50;99.90
3086;DHT22;52812;48.960;9.108;2023-03-24T00:24:46;12.40;99.90
3086;DHT22;52812;48.960;9.108;2023-03-24T00:27:12;12.30;99.90
3086;DHT22;52812;48.960;9.108;2023-03-24T00:29:39;12.30;99.90
3086;DHT22;52812;48.960;9.108;2023-03-24T00:32:05;12.40;99.90
3086;DHT22;52812;48.960;9.108;2023-03-24T00:34:32;12.40;99.90
3086;DHT22;52812;48.960;9.108;2023-03-24T00:37:03;12.40;99.90
3086;DHT22;52812;48.960;9.108;2023-03-24T00:39:29;12.50;99.90
3086;DHT22;52812;48.960;9.108;2023-03-24T00:41:55;12.40;99.90
3086;DHT22;52812;48.960;9.108;2023-03-24T00:44:23;12.50;99.90
3086;DHT22;52812;48.960;9.108;2023-03-24T00:46:50;12.50;99.90
3086;DHT22;52812;48.960;9.108;2023-03-24T00:49:27;12.50;99.90
3086;DHT22;52812;48.960;9.108;2023-03-24T00:52:20;12.50;99.90
3086;DHT22;52812;48.960;9.108;2023-03-24T00:54:48;12.60;99.90
3086;DHT22;52812;48.960;9.108;2023-03-24T00:57:15;12.60;99.90
3086;DHT22;52812;48.960;9.108;2023-03-24T00:59:51;12.60;99.90
3086;DHT22;52812;48.960;9.108;2023-03-24T01:02:18;12.60;99.90
3086;DHT22;52812;48.960;9.108;2023-03-24T01:04:50;12.60;99.90
3086;DHT22;52812;48.960;9.108;2023-03-24T01:07:19;12.60;99.90
3086;DHT22;52812;48.960;9.108;2023-03-24T01:09:46;12.50;99.90
3086;DHT22;52812;48.960;9.108;2023-03-24T01:12:24;12.60;99.90
3086;DHT22;52812;48.960;9.108;2023-03-24T01:14:50;12.50;99.90
3086;DHT22;52812;48.960;9.108;2023-03-24T01:17:18;12.50;99.90
3086;DHT22;52812;48.960;9.108;2023-03-24T01:19:44;12.40;99.90
3086;DHT22;52812;48.960;9.108;2023-03-24T01:22:10;12.50;99.90
3086;DHT22;52812;48.960;9.108;2023-03-24T01:24:35;12.60;99.90
3086;DHT22;52812;48.960;9.108;2023-03-24T01:27:01;12.60;99.90
3086;DHT22;52812;48.960;9.108;2023-03-24T01:29:27;12.60;99.90
3086;DHT22;52812;48.960;9.108;2023-03-24T01:31:52;12.70;99.90
3086;DHT22;52812;48.960;9.108;2023-03-24T01:34:18;12.70;99.90
3086;DHT22;52812;48.960;9.108;2023-03-24T01:36:43;12.70;99.90
3086;DHT22;52812;48.960;9.108;2023-03-24T01:39:09;12.70;99.90
3086;DHT22;52812;48.960;9.108;2023-03-24T01:41:37;12.70;99.90
3086;DHT22;52812;48.960;9.108;2023-03-24T01:44:22;12.50;99.90
3086;DHT22;52812;48.960;9.108;2023-03-24T01:46:48;12.40;99.90
3086;DHT22;52812;48.960;9.108;2023-03-24T01:49:14;12.40;99.90
3086;DHT22;52812;48.960;9.108;2023-03-24T01:51:43;12.40;99.90
3086;DHT22;52812;48.960;9.108;2023-03-24T01:54:15;12.40;99.90
3086;DHT22;52812;48.960;9.108;2023-03-24T01:56:45;12.40;99.90
3086;DHT22;52812;48.960;9.108;2023-03-24T01:59:17;12.40;99.90
3086;DHT22;52812;48.960;9.108;2023-03-24T02:01:43;12.50;99.90
3086;DHT22;52812;48.960;9.108;2023-03-24T02:04:10;12.40;99.90
3086;DHT22;52812;48.960;9.108;2023-03-24T02:06:39;12.20;99.90
3086;DHT22;52812;48.960;9.108;2023-03-24T02:09:09;12.20;99.90
3086;DHT22;52812;48.960;9.108;2023-03-24T02:11:36;12.00;99.90
3086;DHT22;52812;48.960;9.108;2023-03-24T02:14:03;12.10;99.90
3086;DHT22;52812;48.960;9.108;2023-03-24T02:16:35;12.00;99.90
3086;DHT22;52812;48.960;9.108;2023-03-24T02:28:07;12.00;99.90
3086;DHT22;52812;48.960;9.108;2023-03-24T02:30:58;12.00;99.90
3086;DHT22;52812;48.960;9.108;2023-03-24T02:33:59;12.00;99.90
3086;DHT22;52812;48.960;9.108;2023-03-24T02:37:04;12.00;99.90
3086;DHT22;52812;48.960;9.108;2023-03-24T02:44:56;11.70;99.90
3086;DHT22;52812;48.960;9.108;2023-03-24T02:47:38;11.60;99.90
3086;DHT22;52812;48.960;9.108;2023-03-24T02:50:29;11.50;99.90
3086;DHT22;52812;48.960;9.108;2023-03-24T02:53:15;11.60;99.90
3086;DHT22;52812;48.960;9.108;2023-03-24T02:56:10;11.50;99.90
3086;DHT22;52812;48.960;9.108;2023-03-24T02:58:47;11.50;99.90
3086;DHT22;52812;48.960;9.108;2023-03-24T03:01:31;11.60;99.90
3086;DHT22;52812;48.960;9.108;2023-03-24T03:04:16;11.60;99.90
3086;DHT22;52812;48.960;9.108;2023-03-24T03:06:47;11.60;99.90
3086;DHT22;52812;48.960;9.108;2023-03-24T03:09:16;11.60;99.90
3086;DHT22;52812;48.960;9.108;2023-03-24T03:11:48;11.70;99.90
3086;DHT22;52812;48.960;9.108;2023-03-24T03:14:23;11.80;99.90
3086;DHT22;52812;48.960;9.108;2023-03-24T03:17:00;11.90;99.90
3086;DHT22;52812;48.960;9.108;2023-03-24T03:19:32;12.00;99.90
3086;DHT22;52812;48.960;9.108;2023-03-24T03:22:02;12.10;99.90
3086;DHT22;52812;48.960;9.108;2023-03-24T03:24:32;12.20;99.90
3086;DHT22;52812;48.960;9.108;2023-03-24T03:27:06;12.20;99.90
3086;DHT22;52812;48.960;9.108;2023-03-24T03:29:43;12.20;99.90
3086;DHT22;52812;48.960;9.108;2023-03-24T03:32:14;12.30;99.90
3086;DHT22;52812;48.960;9.108;2023-03-24T03:37:44;12.40;99.90
3086;DHT22;52812;48.960;9.108;2023-03-24T03:40:24;12.40;99.90
3086;DHT22;52812;48.960;9.108;2023-03-24T03:42:53;12.40;99.90
3086;DHT22;52812;48.960;9.108;2023-03-24T03:45:19;12.50;99.90
3086;DHT22;52812;48.960;9.108;2023-03-24T03:47:45;12.50;99.90
3086;DHT22;52812;48.960;9.108;2023-03-24T03:50:11;12.50;99.90
3086;DHT22;52812;48.960;9.108;2023-03-24T03:52:38;12.40;99.90
3086;DHT22;52812;48.960;9.108;2023-03-24T03:55:06;12.40;99.90
3086;DHT22;52812;48.960;9.108;2023-03-24T03:57:33;12.40;99.90
3086;DHT22;52812;48.960;9.108;2023-03-24T04:00:00;12.50;99.90
3086;DHT22;52812;48.960;9.108;2023-03-24T04:05:34;12.70;99.90
3086;DHT22;52812;48.960;9.108;2023-03-24T04:15:56;12.80;99.90
3086;DHT22;52812;48.960;9.108;2023-03-24T04:21:26;12.80;99.90
3086;DHT22;52812;48.960;9.108;2023-03-24T04:26:34;13.00;99.90
3086;DHT22;52812;48.960;9.108;2023-03-24T04:29:17;13.10;99.90
3086;DHT22;52812;48.960;9.108;2023-03-24T04:31:50;13.10;99.90
3086;DHT22;52812;48.960;9.108;2023-03-24T04:34:25;13.20;99.90
3086;DHT22;52812;48.960;9.108;2023-03-24T04:37:05;13.30;99.90
3086;DHT22;52812;48.960;9.108;2023-03-24T04:39:35;13.40;99.90
3086;DHT22;52812;48.960;9.108;2023-03-24T04:42:07;13.40;99.90
3086;DHT22;52812;48.960;9.108;2023-03-24T04:44:34;13.30;99.90
3086;DHT22;52812;48.960;9.108;2023-03-24T04:47:01;13.20;99.90
3086;DHT22;52812;48.960;9.108;2023-03-24T04:49:27;13.20;99.90
3086;DHT22;52812;48.960;9.108;2023-03-24T04:51:54;13.20;99.90
3086;DHT22;52812;48.960;9.108;2023-03-24T04:54:21;13.20;99.90
3086;DHT22;52812;48.960;9.108;2023-03-24T04:56:50;13.20;99.90
3086;DHT22;52812;48.960;9.108;2023-03-24T04:59:16;13.20;99.90
3086;DHT22;52812;48.960;9.108;2023-03-24T05:01:43;13.20;99.90
3086;DHT22;52812;48.960;9.108;2023-03-24T05:04:16;13.30;99.90
3086;DHT22;52812;48.960;9.108;2023-03-24T05:06:42;13.40;99.90
3086;DHT22;52812;48.960;9.108;2023-03-24T05:09:08;13.50;99.90
3086;DHT22;52812;48.960;9.108;2023-03-24T05:11:33;13.40;99.90
3086;DHT22;52812;48.960;9.108;2023-03-24T05:13:59;13.40;99.90
3086;DHT22;52812;48.960;9.108;2023-03-24T05:16:24;13.40;99.90
3086;DHT22;52812;48.960;9.108;2023-03-24T05:18:50;13.30;99.90
3086;DHT22;52812;48.960;9.108;2023-03-24T05:21:16;13.30;99.90
3086;DHT22;52812;48.960;9.108;2023-03-24T05:23:41;13.20;99.90
3086;DHT22;52812;48.960;9.108;2023-03-24T05:26:07;13.10;99.90
3086;DHT22;52812;48.960;9.108;2023-03-24T05:28:33;13.10;99.90
3086;DHT22;52812;48.960;9.108;2023-03-24T05:30:58;13.00;99.90
3086;DHT22;52812;48.960;9.108;2023-03-24T05:33:25;13.00;99.90
3086;DHT22;52812;48.960;9.108;2023-03-24T05:35:51;12.90;99.90
3086;DHT22;52812;48.960;9.108;2023-03-24T05:38:16;12.90;99.90
3086;DHT22;52812;48.960;9.108;2023-03-24T05:40:42;12.80;99.90
3086;DHT22;52812;48.960;9.108;2023-03-24T05:43:08;12.70;99.90
3086;DHT22;52812;48.960;9.108;2023-03-24T05:45:34;12.70;99.90
3086;DHT22;52812;48.960;9.108;2023-03-24T05:47:59;12.60;99.90
3086;DHT22;52812;48.960;9.108;2023-03-24T05:50:25;12.60;99.90
3086;DHT22;52812;48.960;9.108;2023-03-24T05:52:51;12.50;99.90
3086;DHT22;52812;48.960;9.108;2023-03-24T05:55:17;12.60;99.90
3086;DHT22;52812;48.960;9.108;2023-03-24T05:57:44;12.60;99.90
3086;DHT22;52812;48.960;9.108;2023-03-24T06:00:10;12.50;99.90
3086;DHT22;52812;48.960;9.108;2023-03-24T06:02:44;12.50;99.90
3086;DHT22;52812;48.960;9.108;2023-03-24T06:05:10;12.50;99.90
3086;DHT22;52812;48.960;9.108;2023-03-24T06:07:37;12.40;99.90
3086;DHT22;52812;48.960;9.108;2023-03-24T06:10:04;12.40;99.90
3086;DHT22;52812;48.960;9.108;2023-03-24T06:12:32;12.40;99.90
3086;DHT22;52812;48.960;9.108;2023-03-24T06:14:58;12.30;99.90
3086;DHT22;52812;48.960;9.108;2023-03-24T06:17:25;12.30;99.90
3086;DHT22;52812;48.960;9.108;2023-03-24T06:19:53;12.30;99.90
3086;DHT22;52812;48.960;9.108;2023-03-24T06:22:19;12.30;99.90
3086;DHT22;52812;48.960;9.108;2023-03-24T06:24:45;12.30;99.90
3086;DHT22;52812;48.960;9.108;2023-03-24T06:27:11;12.30;99.90
3086;DHT22;52812;48.960;9.108;2023-03-24T06:29:39;12.30;99.90
3086;DHT22;52812;48.960;9.108;2023-03-24T06:32:07;12.40;99.90
3086;DHT22;52812;48.960;9.108;2023-03-24T06:34:33;12.40;99.90
3086;DHT22;52812;48.960;9.108;2023-03-24T06:36:58;12.40;99.90
3086;DHT22;52812;48.960;9.108;2023-03-24T06:39:24;12.40;99.90
3086;DHT22;52812;48.960;9.108;2023-03-24T06:41:51;12.50;99.90
3086;DHT22;52812;48.960;9.108;2023-03-24T06:44:16;12.40;99.90
3086;DHT22;52812;48.960;9.108;2023-03-24T06:46:42;12.50;99.90
3086;DHT22;52812;48.960;9.108;2023-03-24T06:49:10;12.50;99.90
3086;DHT22;52812;48.960;9.108;2023-03-24T06:51:35;12.50;99.90
3086;DHT22;52812;48.960;9.108;2023-03-24T06:54:01;12.50;99.90
3086;DHT22;52812;48.960;9.108;2023-03-24T06:56:27;12.60;99.90
3086;DHT22;52812;48.960;9.108;2023-03-24T06:58:54;12.50;99.90
3086;DHT22;52812;48.960;9.108;2023-03-24T07:01:20;12.50;99.90
3086;DHT22;52812;48.960;9.108;2023-03-24T07:03:45;12.50;99.90
3086;DHT22;52812;48.960;9.108;2023-03-24T07:06:12;12.50;99.90
3086;DHT22;52812;48.960;9.108;2023-03-24T07:08:38;12.50;99.90
3086;DHT22;52812;48.960;9.108;2023-03-24T07:11:05;12.50;99.90
3086;DHT22;52812;48.960;9.108;2023-03-24T07:13:31;12.50;99.90
3086;DHT22;52812;48.960;9.108;2023-03-24T07:15:56;12.50;99.90
3086;DHT22;52812;48.960;9.108;2023-03-24T07:18:22;12.50;99.90
3086;DHT22;52812;48.960;9.108;2023-03-24T07:20:47;12.60;99.90
3086;DHT22;52812;48.960;9.108;2023-03-24T07:23:13;12.60;99.90
3086;DHT22;52812;48.960;9.108;2023-03-24T07:25:40;12.60;99.90
3086;DHT22;52812;48.960;9.108;2023-03-24T07:28:05;12.60;99.90
3086;DHT22;52812;48.960;9.108;2023-03-24T07:30:32;12.60;99.90
3086;DHT22;52812;48.960;9.108;2023-03-24T07:33:00;12.60;99.90
3086;DHT22;52812;48.960;9.108;2023-03-24T07:35:27;12.60;99.90
3086;DHT22;52812;48.960;9.108;2023-03-24T07:37:56;12.60;99.90
3086;DHT22;52812;48.960;9.108;2023-03-24T07:40:22;12.60;99.90
3086;DHT22;52812;48.960;9.108;2023-03-24T07:42:47;12.60;99.90
3086;DHT22;52812;48.960;9.108;2023-03-24T07:45:13;12.60;99.90
3086;DHT22;52812;48.960;9.108;2023-03-24T07:47:42;12.60;99.90
3086;DHT22;52812;48.960;9.108;2023-03-24T07:50:09;12.60;99.90
3086;DHT22;52812;48.960;9.108;2023-03-24T07:52:44;12.60;99.90
3086;DHT22;52812;48.960;9.108;2023-03-24T07:55:11;12.70;99.90
3086;DHT22;52812;48.960;9.108;2023-03-24T07:57:47;12.70;99.90
3086;DHT22;52812;48.960;9.108;2023-03-24T08:00:14;12.70;99.90
3086;DHT22;52812;48.960;9.108;2023-03-24T08:02:43;12.70;99.90
3086;DHT22;52812;48.960;9.108;2023-03-24T08:05:09;12.80;99.90
3086;DHT22;52812;48.960;9.108;2023-03-24T08:07:42;12.80;99.90
3086;DHT22;52812;48.960;9.108;2023-03-24T08:10:12;12.80;99.90
3086;DHT22;52812;48.960;9.108;2023-03-24T08:12:38;12.80;99.90
3086;DHT22;52812;48.960;9.108;2023-03-24T08:15:08;12.80;99.90
3086;DHT22;52812;48.960;9.108;2023-03-24T08:17:34;12.80;99.90
3086;DHT22;52812;48.960;9.108;2023-03-24T08:20:01;12.70;99.90
3086;DHT22;52812;48.960;9.108;2023-03-24T08:22:29;12.80;99.90
3086;DHT22;52812;48.960;9.108;2023-03-24T08:24:54;12.80;99.90
3086;DHT22;52812;48.960;9.108;2023-03-24T08:27:20;12.90;99.90
3086;DHT22;52812;48.960;9.108;2023-03-24T08:29:45;13.00;99.90
3086;DHT22;52812;48.960;9.108;2023-03-24T08:32:11;13.00;99.90
3086;DHT22;52812;48.960;9.108;2023-03-24T08:34:37;13.10;99.90
3086;DHT22;52812;48.960;9.108;2023-03-24T08:37:03;13.20;99.90
3086;DHT22;52812;48.960;9.108;2023-03-24T08:39:28;13.30;99.90
3086;DHT22;52812;48.960;9.108;2023-03-24T08:41:57;13.30;99.90
3086;DHT22;52812;48.960;9.108;2023-03-24T08:44:22;13.30;99.90
3086;DHT22;52812;48.960;9.108;2023-03-24T08:46:48;13.40;99.90
3086;DHT22;52812;48.960;9.108;2023-03-24T08:49:13;13.40;99.90
3086;DHT22;52812;48.960;9.108;2023-03-24T08:51:39;13.40;99.90
3086;DHT22;52812;48.960;9.108;2023-03-24T08:54:04;13.50;99.90
3086;DHT22;52812;48.960;9.108;2023-03-24T08:56:30;13.50;99.90
3086;DHT22;52812;48.960;9.108;2023-03-24T08:58:56;13.60;99.90
3086;DHT22;52812;48.960;9.108;2023-03-24T09:01:22;13.70;99.90
3086;DHT22;52812;48.960;9.108;2023-03-24T09:03:48;13.90;99.90
3086;DHT22;52812;48.960;9.108;2023-03-24T09:06:13;14.00;99.90
3086;DHT22;52812;48.960;9.108;2023-03-24T09:08:40;14.00;99.90
3086;DHT22;52812;48.960;9.108;2023-03-24T09:11:06;14.10;99.90
3086;DHT22;52812;48.960;9.108;2023-03-24T09:13:32;14.20;99.90
3086;DHT22;52812;48.960;9.108;2023-03-24T09:16:01;14.40;99.90
3086;DHT22;52812;48.960;9.108;2023-03-24T09:18:27;14.40;99.90
3086;DHT22;52812;48.960;9.108;2023-03-24T09:20:53;14.50;99.90
3086;DHT22;52812;48.960;9.108;2023-03-24T09:23:19;14.40;99.90
3086;DHT22;52812;48.960;9.108;2023-03-24T09:25:48;14.40;99.90
3086;DHT22;52812;48.960;9.108;2023-03-24T09:28:14;14.40;99.90
3086;DHT22;52812;48.960;9.108;2023-03-24T09:30:41;14.30;99.90
3086;DHT22;52812;48.960;9.108;2023-03-24T09:33:06;14.20;99.90
3086;DHT22;52812;48.960;9.108;2023-03-24T09:35:32;14.10;99.90
3086;DHT22;52812;48.960;9.108;2023-03-24T09:37:57;14.10;99.90
3086;DHT22;52812;48.960;9.108;2023-03-24T09:40:27;14.00;99.90
3086;DHT22;52812;48.960;9.108;2023-03-24T09:43:05;14.00;99.90
3086;DHT22;52812;48.960;9.108;2023-03-24T09:45:49;13.90;99.90
3086;DHT22;52812;48.960;9.108;2023-03-24T09:50:59;14.10;99.90
3086;DHT22;52812;48.960;9.108;2023-03-24T09:56:13;14.30;99.90
3086;DHT22;52812;48.960;9.108;2023-03-24T09:58:41;14.60;99.90
3086;DHT22;52812;48.960;9.108;2023-03-24T10:01:12;14.90;99.90
3086;DHT22;52812;48.960;9.108;2023-03-24T10:03:38;15.10;99.90
3086;DHT22;52812;48.960;9.108;2023-03-24T10:06:08;15.20;99.90
3086;DHT22;52812;48.960;9.108;2023-03-24T10:14:05;16.30;99.90
3086;DHT22;52812;48.960;9.108;2023-03-24T10:16:47;16.40;99.90
3086;DHT22;52812;48.960;9.108;2023-03-24T10:25:30;16.70;99.90
3086;DHT22;52812;48.960;9.108;2023-03-24T10:30:35;16.80;99.90
3086;DHT22;52812;48.960;9.108;2023-03-24T10:33:01;16.80;99.90
3086;DHT22;52812;48.960;9.108;2023-03-24T10:35:31;16.60;99.90
3086;DHT22;52812;48.960;9.108;2023-03-24T10:37:58;16.50;99.90
3086;DHT22;52812;48.960;9.108;2023-03-24T10:40:32;16.50;99.90
3086;DHT22;52812;48.960;9.108;2023-03-24T10:42:58;16.30;99.90
3086;DHT22;52812;48.960;9.108;2023-03-24T10:45:28;16.10;99.90
3086;DHT22;52812;48.960;9.108;2023-03-24T10:47:59;16.00;99.90
3086;DHT22;52812;48.960;9.108;2023-03-24T10:50:28;15.90;99.90
3086;DHT22;52812;48.960;9.108;2023-03-24T10:52:55;15.80;99.90
3086;DHT22;52812;48.960;9.108;2023-03-24T10:55:23;15.70;99.90
3086;DHT22;52812;48.960;9.108;2023-03-24T10:57:55;15.70;99.90
3086;DHT22;52812;48.960;9.108;2023-03-24T11:00:23;15.70;99.90
3086;DHT22;52812;48.960;9.108;2023-03-24T11:03:04;15.70;99.90
3086;DHT22;52812;48.960;9.108;2023-03-24T11:05:36;15.70;99.90
3086;DHT22;52812;48.960;9.108;2023-03-24T11:08:31;15.80;99.90
3086;DHT22;52812;48.960;9.108;2023-03-24T11:10:57;15.90;99.90
3086;DHT22;52812;48.960;9.108;2023-03-24T11:16:13;16.40;99.90
3086;DHT22;52812;48.960;9.108;2023-03-24T11:18:54;16.60;99.90
3086;DHT22;52812;48.960;9.108;2023-03-24T11:21:20;16.80;99.90
3086;DHT22;52812;48.960;9.108;2023-03-24T11:23:46;17.00;99.90
3086;DHT22;52812;48.960;9.108;2023-03-24T11:26:21;17.00;99.90
3086;DHT22;52812;48.960;9.108;2023-03-24T11:28:54;17.10;99.90
3086;DHT22;52812;48.960;9.108;2023-03-24T11:31:29;17.00;99.90
3086;DHT22;52812;48.960;9.108;2023-03-24T11:36:47;17.00;99.90
3086;DHT22;52812;48.960;9.108;2023-03-24T11:39:26;17.00;99.90
3086;DHT22;52812;48.960;9.108;2023-03-24T11:42:00;16.90;99.90
3086;DHT22;52812;48.960;9.108;2023-03-24T11:44:43;16.80;99.90
3086;DHT22;52812;48.960;9.108;2023-03-24T11:47:23;16.50;99.90
3086;DHT22;52812;48.960;9.108;2023-03-24T11:52:44;16.00;99.90
3086;DHT22;52812;48.960;9.108;2023-03-24T11:55:18;16.00;99.90
3086;DHT22;52812;48.960;9.108;2023-03-24T12:00:41;16.30;99.90
3086;DHT22;52812;48.960;9.108;2023-03-24T12:06:27;16.10;99.90
3086;DHT22;52812;48.960;9.108;2023-03-24T12:12:31;15.90;99.90
3086;DHT22;52812;48.960;9.108;2023-03-24T12:23:59;16.40;99.90
3086;DHT22;52812;48.960;9.108;2023-03-24T12:26:30;16.50;99.90
3086;DHT22;52812;48.960;9.108;2023-03-24T12:38:48;16.30;99.90
3086;DHT22;52812;48.960;9.108;2023-03-24T12:46:44;15.80;99.90
3086;DHT22;52812;48.960;9.108;2023-03-24T12:49:39;15.70;99.90
3086;DHT22;52812;48.960;9.108;2023-03-24T12:52:10;15.60;99.90
3086;DHT22;52812;48.960;9.108;2023-03-24T12:55:09;15.30;99.90
3086;DHT22;52812;48.960;9.108;2023-03-24T12:57:41;14.80;99.90
3086;DHT22;52812;48.960;9.108;2023-03-24T13:00:17;14.00;99.90
3086;DHT22;52812;48.960;9.108;2023-03-24T13:02:47;13.60;99.90
3086;DHT22;52812;48.960;9.108;2023-03-24T13:05:21;13.50;99.90
3086;DHT22;52812;48.960;9.108;2023-03-24T13:07:49;13.00;99.90
3086;DHT22;52812;48.960;9.108;2023-03-24T13:10:20;12.80;99.90
3086;DHT22;52812;48.960;9.108;2023-03-24T13:12:55;12.70;99.90
3086;DHT22;52812;48.960;9.108;2023-03-24T13:15:38;12.60;99.90
3086;DHT22;52812;48.960;9.108;2023-03-24T13:20:55;12.40;99.90
3086;DHT22;52812;48.960;9.108;2023-03-24T13:28:28;12.00;99.90
3086;DHT22;52812;48.960;9.108;2023-03-24T13:30:56;12.00;99.90
3086;DHT22;52812;48.960;9.108;2023-03-24T13:33:28;12.00;99.90
3086;DHT22;52812;48.960;9.108;2023-03-24T13:36:22;12.00;99.90
3086;DHT22;52812;48.960;9.108;2023-03-24T13:38:54;11.70;99.90
3086;DHT22;52812;48.960;9.108;2023-03-24T13:41:23;11.60;99.90
3086;DHT22;52812;48.960;9.108;2023-03-24T13:43:58;11.50;99.90
3086;DHT22;52812;48.960;9.108;2023-03-24T13:46:25;11.50;99.90
3086;DHT22;52812;48.960;9.108;2023-03-24T13:48:54;11.50;99.90
3086;DHT22;52812;48.960;9.108;2023-03-24T13:51:34;11.50;99.90
3086;DHT22;52812;48.960;9.108;2023-03-24T13:54:22;11.40;99.90
3086;DHT22;52812;48.960;9.108;2023-03-24T13:57:10;11.50;99.90
3086;DHT22;52812;48.960;9.108;2023-03-24T13:59:39;11.50;99.90
3086;DHT22;52812;48.960;9.108;2023-03-24T14:05:04;11.70;99.90
3086;DHT22;52812;48.960;9.108;2023-03-24T14:15:32;12.40;99.90
3086;DHT22;52812;48.960;9.108;2023-03-24T14:25:53;12.40;99.90
3086;DHT22;52812;48.960;9.108;2023-03-24T14:28:40;12.40;99.90
3086;DHT22;52812;48.960;9.108;2023-03-24T14:34:20;12.40;99.90
3086;DHT22;52812;48.960;9.108;2023-03-24T14:36:57;12.40;99.90
3086;DHT22;52812;48.960;9.108;2023-03-24T14:39:40;12.50;99.90
3086;DHT22;52812;48.960;9.108;2023-03-24T14:48:02;12.50;99.90
3086;DHT22;52812;48.960;9.108;2023-03-24T14:50:28;12.40;99.90
3086;DHT22;52812;48.960;9.108;2023-03-24T14:52:59;12.50;99.90
3086;DHT22;52812;48.960;9.108;2023-03-24T14:55:26;12.60;99.90
3086;DHT22;52812;48.960;9.108;2023-03-24T14:57:54;12.60;99.90
3086;DHT22;52812;48.960;9.108;2023-03-24T15:00:30;12.70;99.90
3086;DHT22;52812;48.960;9.108;2023-03-24T15:05:35;12.60;99.90
3086;DHT22;52812;48.960;9.108;2023-03-24T15:08:12;12.50;99.90
3086;DHT22;52812;48.960;9.108;2023-03-24T15:10:48;12.50;99.90
3086;DHT22;52812;48.960;9.108;2023-03-24T15:13:28;12.60;99.90
3086;DHT22;52812;48.960;9.108;2023-03-24T15:15:54;12.70;99.90
3086;DHT22;52812;48.960;9.108;2023-03-24T15:18:20;12.70;99.90
3086;DHT22;52812;48.960;9.108;2023-03-24T15:20:51;12.80;99.90
3086;DHT22;52812;48.960;9.108;2023-03-24T15:23:22;12.80;99.90
3086;DHT22;52812;48.960;9.108;2023-03-24T15:25:48;12.90;99.90
3086;DHT22;52812;48.960;9.108;2023-03-24T15:28:20;12.90;99.90
3086;DHT22;52812;48.960;9.108;2023-03-24T15:30:47;13.00;99.90
3086;DHT22;52812;48.960;9.108;2023-03-24T15:33:13;13.10;99.90
3086;DHT22;52812;48.960;9.108;2023-03-24T15:35:39;13.10;99.90
3086;DHT22;52812;48.960;9.108;2023-03-24T15:38:05;13.20;99.90
3086;DHT22;52812;48.960;9.108;2023-03-24T15:40:32;13.30;99.90
3086;DHT22;52812;48.960;9.108;2023-03-24T15:43:00;13.30;99.90
3086;DHT22;52812;48.960;9.108;2023-03-24T15:45:32;13.30;99.90
3086;DHT22;52812;48.960;9.108;2023-03-24T15:48:11;13.30;99.90
3086;DHT22;52812;48.960;9.108;2023-03-24T15:50:39;13.40;99.90
3086;DHT22;52812;48.960;9.108;2023-03-24T15:53:25;13.40;99.90
3086;DHT22;52812;48.960;9.108;2023-03-24T15:56:15;13.70;99.90
3086;DHT22;52812;48.960;9.108;2023-03-24T15:58:53;13.90;99.90
3086;DHT22;52812;48.960;9.108;2023-03-24T16:01:23;14.00;99.90
3086;DHT22;52812;48.960;9.108;2023-03-24T16:03:55;13.90;99.90
3086;DHT22;52812;48.960;9.108;2023-03-24T16:06:27;13.90;99.90
3086;DHT22;52812;48.960;9.108;2023-03-24T16:08:58;13.90;99.90
3086;DHT22;52812;48.960;9.108;2023-03-24T16:11:27;13.80;99.90
3086;DHT22;52812;48.960;9.108;2023-03-24T16:13:53;13.90;99.90
3086;DHT22;52812;48.960;9.108;2023-03-24T16:16:27;13.90;99.90
3086;DHT22;52812;48.960;9.108;2023-03-24T16:18:54;13.90;99.90
3086;DHT22;52812;48.960;9.108;2023-03-24T16:21:26;13.80;99.90
3086;DHT22;52812;48.960;9.108;2023-03-24T16:23:53;13.70;99.90
3086;DHT22;52812;48.960;9.108;2023-03-24T16:26:27;13.60;99.90
3086;DHT22;52812;48.960;9.108;2023-03-24T16:28:55;13.60;99.90
3086;DHT22;52812;48.960;9.108;2023-03-24T16:31:27;13.40;99.90
3086;DHT22;52812;48.960;9.108;2023-03-24T16:33:55;13.40;99.90
3086;DHT22;52812;48.960;9.108;2023-03-24T16:36:22;13.40;99.90
3086;DHT22;52812;48.960;9.108;2023-03-24T16:38:52;13.40;99.90
3086;DHT22;52812;48.960;9.108;2023-03-24T16:41:17;13.40;99.90
3086;DHT22;52812;48.960;9.108;2023-03-24T16:43:44;13.30;99.90
3086;DHT22;52812;48.960;9.108;2023-03-24T16:46:36;13.30;99.90
3086;DHT22;52812;48.960;9.108;2023-03-24T16:49:04;13.30;99.90
3086;DHT22;52812;48.960;9.108;2023-03-24T16:51:30;13.30;99.90
3086;DHT22;52812;48.960;9.108;2023-03-24T16:53:56;13.30;99.90
3086;DHT22;52812;48.960;9.108;2023-03-24T16:56:22;13.30;99.90
3086;DHT22;52812;48.960;9.108;2023-03-24T16:58:49;13.20;99.90
3086;DHT22;52812;48.960;9.108;2023-03-24T17:04:03;13.20;99.90
3086;DHT22;52812;48.960;9.108;2023-03-24T17:06:31;13.20;99.90
3086;DHT22;52812;48.960;9.108;2023-03-24T17:08:57;13.10;99.90
3086;DHT22;52812;48.960;9.108;2023-03-24T17:11:31;13.00;99.90
3086;DHT22;52812;48.960;9.108;2023-03-24T17:13:58;12.90;99.90
3086;DHT22;52812;48.960;9.108;2023-03-24T17:16:32;12.80;99.90
3086;DHT22;52812;48.960;9.108;2023-03-24T17:19:06;12.60;99.90
3086;DHT22;52812;48.960;9.108;2023-03-24T17:21:33;12.50;99.90
3086;DHT22;52812;48.960;9.108;2023-03-24T17:24:01;12.50;99.90
3086;DHT22;52812;48.960;9.108;2023-03-24T17:26:27;12.40;99.90
3086;DHT22;52812;48.960;9.108;2023-03-24T17:28:53;12.30;99.90
3086;DHT22;52812;48.960;9.108;2023-03-24T17:31:19;12.20;99.90
3086;DHT22;52812;48.960;9.108;2023-03-24T17:33:44;12.10;99.90
3086;DHT22;52812;48.960;9.108;2023-03-24T17:36:14;12.10;99.90
3086;DHT22;52812;48.960;9.108;2023-03-24T17:38:41;12.00;99.90
3086;DHT22;52812;48.960;9.108;2023-03-24T17:41:08;11.90;99.90
3086;DHT22;52812;48.960;9.108;2023-03-24T17:43:34;11.70;99.90
3086;DHT22;52812;48.960;9.108;2023-03-24T17:46:01;11.60;99.90
3086;DHT22;52812;48.960;9.108;2023-03-24T17:48:27;11.50;99.90
3086;DHT22;52812;48.960;9.108;2023-03-24T17:50:54;11.40;99.90
3086;DHT22;52812;48.960;9.108;2023-03-24T17:53:21;11.40;99.90
3086;DHT22;52812;48.960;9.108;2023-03-24T17:55:52;11.30;99.90
3086;DHT22;52812;48.960;9.108;2023-03-24T17:58:19;11.20;99.90
3086;DHT22;52812;48.960;9.108;2023-03-24T18:00:45;11.10;99.90
3086;DHT22;52812;48.960;9.108;2023-03-24T18:03:10;11.00;99.90
3086;DHT22;52812;48.960;9.108;2023-03-24T18:05:36;10.90;99.90
3086;DHT22;52812;48.960;9.108;2023-03-24T18:08:02;10.80;99.90
3086;DHT22;52812;48.960;9.108;2023-03-24T18:10:29;10.70;99.90
3086;DHT22;52812;48.960;9.108;2023-03-24T18:12:55;10.60;99.90
3086;DHT22;52812;48.960;9.108;2023-03-24T18:15:21;10.60;99.90
3086;DHT22;52812;48.960;9.108;2023-03-24T18:17:47;10.50;99.90